Flight Track Log - Related Links

Times and Time Zones

All times are in EDT time to prevent confusion due to time zone crossing. See the NKS652 flight status page for this flight to view local times or setup timezone preferences in your user account.

Time Position Orientation Groundspeed Altitude Reporting Facility
EDT Latitude Longitude Course Direction KTS MPH feet Rate Location/Type
Fri 05:24:32 PM 18.5169 -77.8939 346° North 439 505 38,000  Level FlightAware ADS-B (MKBS / OCJ)
Fri 05:25:00 PM 18.5856 -77.9125 346° North 437 503 38,000  Level FlightAware ADS-B (MKBS / OCJ)
Fri 05:25:32 PM 18.6529 -77.9309 346° North 437 503 38,000  Level FlightAware ADS-B (MKBS / OCJ)
Fri 05:25:49 PM 18.6845 -77.9395 346° North 435 501 38,000  Level FlightAware ADS-B (MKBS / OCJ)
Fri 06:08:59 PM 23.7219 -79.0050 355° North 430 495 38,000 -2 Level Miami Center
Fri 06:09:00 PM 22.9908 -78.9647 353° North  Level Estimated
Fri 06:10:00 PM 23.0933 -78.9746 355° North  Level FlightAware Approximate
Fri 06:10:01 PM 23.8378 -79.0317 348° North 429 494 37,900  Level Miami Center
Fri 06:11:00 PM 23.1958 -78.9846 355° North  Level FlightAware Approximate
Fri 06:11:03 PM 23.9778 -79.0622 349° North 428 493 37,900  Level Miami Center
Fri 06:12:00 PM 23.2983 -78.9945 355° North  Level FlightAware Approximate
Fri 06:12:05 PM 24.0956 -79.0814 352° North 428 493 38,000  Level Miami Center
Fri 06:13:00 PM 23.4007 -79.0045 355° North  Level FlightAware Approximate
Fri 06:13:07 PM 24.2142 -79.0967 353° North 428 493 37,000  Level Miami Center
Fri 06:14:00 PM 23.5032 -79.0145 355° North  Level FlightAware Approximate
Fri 06:14:10 PM 24.3333 -79.1122 353° North 428 493 35,400  Level Miami Center
Fri 06:15:12 PM 24.4575 -79.1289 353° North 444 511 33,400 -2,177 Descending Miami Center
Fri 06:16:14 PM 24.6086 -79.1492 353° North 455 524 30,900 -3,048 Descending Miami Center
Fri 06:17:16 PM 24.7353 -79.1653 353° North 455 524 27,100 -2,661 Descending Miami Center
Fri 06:18:18 PM 24.8639 -79.1811 354° North 461 531 25,400 -1,306 Descending Miami Center
Fri 06:19:20 PM 24.9869 -79.1983 353° North 454 522 24,400 -968 Descending Miami Center
Fri 06:20:22 PM 25.1081 -79.2139 353° North 447 514 23,400 -1,548 Descending Miami Center
Fri 06:21:24 PM 25.2358 -79.2800 335° Northwest 429 494 21,200 -2,468 Descending Miami Center
Fri 06:22:26 PM 25.3406 -79.3378 333° Northwest 424 488 18,300 -2,806 Descending Miami Center
Fri 06:23:28 PM 25.4411 -79.3950 333° Northwest 412 474 15,400 -2,867 Descending Miami Center
Fri 06:24:19 PM 25.5306 -79.4458 333° Northwest 395 455 12,900 -2,710 Descending Miami Center
Fri 06:24:30 PM 25.5378 -79.4514 325° Northwest 399 459 12,600 -2,466 Descending Miami Center
Fri 06:25:32 PM 25.6325 -79.5061 332° Northwest 388 447 9,900 -2,903 Descending Miami Center
Fri 06:26:03 PM 25.6947 -79.5406 333° Northwest 376 433 8,100 -2,516 Descending Miami Center
Fri 06:26:34 PM 25.7242 -79.5581 332° Northwest 376 433 7,300 -1,475 Descending Miami Center
Fri 06:27:04 PM 25.7839 -79.5931 332° Northwest 340 391 6,600 -1,065 Descending Miami Center
Fri 06:27:36 PM 25.8236 -79.6164 332° Northwest 333 383 6,200 -581 Descending Miami Center
Fri 06:28:06 PM 25.8542 -79.6422 323° Northwest 288 331 6,000 -290 Descending Miami Center
Fri 06:28:38 PM 25.8711 -79.6803 296° West 286 329 5,900  Descending Miami Center
Fri 06:29:07 PM 25.8892 -79.7233 295° West 277 319 6,000  Climbing Miami Center
Fri 06:29:40 PM 25.9042 -79.7575 296° West 280 322 5,900  Descending Miami Center
Fri 06:30:08 PM 25.9225 -79.7997 296° West 278 320 6,000  Climbing Miami Center
Fri 06:30:42 PM 25.9378 -79.8342 296° West 280 322 5,900  Descending Miami Center
Fri 06:30:57 PM 25.9481 -79.8619 292° West 277 319 6,000  Climbing Miami Center
Fri 06:31:44 PM 25.9703 -79.9111 297° West 279 321 5,900  Descending Miami Center
Fri 06:31:58 PM 25.9828 -79.9433 293° West 274 315 6,000  Climbing Miami Center
Fri 06:32:46 PM 26.0156 -79.9986 303° West 276 318 5,900  Descending Miami Center
Fri 06:33:05 PM 26.0283 -80.0208 303° West 274 315 6,000  Climbing Miami Center
Fri 06:33:48 PM 26.0578 -80.0678 305° West 274 315 5,900  Descending Miami Center
Fri 06:34:06 PM 26.0703 -80.0889 303° West 272 313 6,000  Climbing Miami Center
Fri 06:34:50 PM 26.1000 -80.1361 305° West 272 313 5,900 -197 Descending Miami Center
Fri 06:35:07 PM 26.1142 -80.1594 304° West 251 289 5,800 -677 Descending Miami Center
Fri 06:35:52 PM 26.1386 -80.1969 306° West 239 275 5,200 -787 Descending Miami Center
Fri 06:36:08 PM 26.1522 -80.2206 303° West 227 261 5,000 -290 Descending Miami Center
Fri 06:36:54 PM 26.1586 -80.2606 280° West 229 264 4,900 -561 Descending Miami Center
Fri 06:37:55 PM 26.1567 -80.3297 268° West 227 261 4,000 -723 Descending Miami Center
Fri 06:38:17 PM 26.1556 -80.3647 268° West 222 255 3,900 -97 Descending Miami Center
Fri 06:38:57 PM 26.1547 -80.4083 269° West 208 239 3,900 109 Level Miami Center
Fri 06:39:12 PM 26.1500 -80.4200 246° West 185 213 4,000  Climbing Miami Center
Fri 06:39:59 PM 26.1111 -80.4269 189° South 198 228 3,900  Descending Miami Center
Fri 06:40:13 PM 26.0978 -80.4158 143° Southeast 200 230 4,000 -290 Climbing Miami Center
Fri 06:41:01 PM 26.0808 -80.3761 115° Southeast 201 231 3,600 -689 Descending Miami Center
Fri 06:41:14 PM 26.0786 -80.3586 98° East 204 235 3,300 -1,161 Descending Miami Center
Fri 06:42:03 PM 26.0775 -80.3144 92° East 204 235 2,400 -1,082 Descending Miami Center
Fri 06:42:15 PM 26.0783 -80.2958 87° East 194 223 2,200 -787 Descending Miami Center
Fri 06:43:04 PM 26.0772 -80.2578 92° East 187 215 1,600 -757 Descending Miami Center
Fri 06:44:06 PM 26.0769 -80.2164 90° East 140 161 800 -740 Descending Miami Center
Fri 06:44:17 PM 26.0778 -80.2056 85° East 131 151 700 -677 Descending Miami Center
Fri 06:45:08 PM 26.0767 -80.1717 92° East 130 150 100 -706 Descending Miami Center

Login

Don't have an account? Register now (free) for customized features, flight alerts, and more!